createdAt,value
2019-02-15T00:00:41.289Z,100852.19
2019-02-15T00:03:07.766Z,100852.12
2019-02-15T00:05:33.632Z,100845.45
2019-02-15T00:07:59.795Z,100850.27
2019-02-15T00:10:25.645Z,100850.32
2019-02-15T00:12:51.535Z,100829.16
2019-02-15T00:15:17.554Z,100819.50
2019-02-15T00:17:51.313Z,100818.30
2019-02-15T00:20:19.440Z,100818.69
2019-02-15T00:22:45.312Z,100813.06
2019-02-15T00:25:11.273Z,100807.27
2019-02-15T00:27:37.355Z,100823.53
2019-02-15T00:30:06.055Z,100805.88
2019-02-15T00:32:31.925Z,100816.34
2019-02-15T00:34:58.060Z,100805.82
2019-02-15T00:37:23.897Z,100801.37
2019-02-15T00:39:49.788Z,100816.41
2019-02-15T00:42:16.018Z,100816.80
2019-02-15T00:44:41.900Z,100820.70
2019-02-15T00:47:09.646Z,100822.09
2019-02-15T00:49:37.630Z,100821.64
2019-02-15T00:52:05.507Z,100833.55
2019-02-15T00:54:50.021Z,100776.69
2019-02-15T00:57:17.918Z,100815.02
2019-02-15T00:59:51.829Z,100805.77
2019-02-15T01:02:22.626Z,100804.89
2019-02-15T01:04:53.286Z,100808.86
2019-02-15T01:07:29.703Z,100804.50
2019-02-15T01:09:57.913Z,100806.66
2019-02-15T01:12:25.688Z,100793.43
2019-02-15T01:14:51.581Z,100811.11
2019-02-15T01:17:17.743Z,100803.17
2019-02-15T01:19:43.598Z,100808.92
2019-02-15T01:22:09.571Z,100805.88
2019-02-15T01:24:35.522Z,100814.27
2019-02-15T01:27:03.294Z,100802.30
2019-02-15T01:29:36.881Z,100813.34
2019-02-15T01:32:04.657Z,100811.56
2019-02-15T01:34:38.288Z,100818.99
2019-02-15T01:37:17.817Z,100823.47
2019-02-15T01:39:51.612Z,100819.44
2019-02-15T01:42:19.404Z,100820.37
2019-02-15T01:44:50.168Z,100816.41
2019-02-15T01:47:16.997Z,100821.70
2019-02-15T01:49:42.992Z,100816.80
2019-02-15T01:52:08.943Z,100818.57
2019-02-15T01:54:34.920Z,100815.41
2019-02-15T01:57:00.797Z,100829.52
2019-02-15T01:59:26.650Z,100829.58
2019-02-15T02:01:52.992Z,100822.90
2019-02-15T02:04:18.876Z,100823.35
2019-02-15T02:06:44.838Z,100817.19
2019-02-15T02:09:11.192Z,100825.61
2019-02-15T02:11:37.046Z,100839.23
2019-02-15T02:14:03.057Z,100827.32
2019-02-15T02:16:29.064Z,100817.19
2019-02-15T02:18:54.936Z,100819.44
2019-02-15T02:21:20.806Z,100805.34
2019-02-15T02:23:46.836Z,100819.44
2019-02-15T02:26:12.756Z,100817.24
2019-02-15T02:28:38.612Z,100819.95
2019-02-15T02:31:04.911Z,100779.39
2019-02-15T02:33:30.758Z,100808.53
2019-02-15T02:35:56.645Z,100813.88
2019-02-15T02:38:22.804Z,100827.56
2019-02-15T02:40:48.673Z,100809.03
2019-02-15T02:43:14.653Z,100814.39
2019-02-15T02:45:40.708Z,100816.16
2019-02-15T02:48:06.603Z,100806.90
2019-02-15T02:50:32.476Z,100814.89
2019-02-15T02:52:58.624Z,100812.67
2019-02-15T02:55:24.573Z,100814.45
2019-02-15T02:57:50.446Z,100816.70
2019-02-15T03:00:16.695Z,100806.14
2019-02-15T03:02:42.564Z,100816.34
2019-02-15T03:05:08.544Z,100799.14
2019-02-15T03:07:34.604Z,100803.05
2019-02-15T03:10:00.649Z,100807.47
2019-02-15T03:12:26.499Z,100814.95
2019-02-15T03:14:52.553Z,100816.73
2019-02-15T03:17:18.451Z,100795.56
2019-02-15T03:19:44.329Z,100808.77
2019-02-15T03:22:10.524Z,100805.64
2019-02-15T03:24:36.380Z,100817.54
2019-02-15T03:27:02.338Z,100819.29
2019-02-15T03:29:28.427Z,100824.58
2019-02-15T03:31:54.282Z,100847.52
2019-02-15T03:34:20.189Z,100833.84
2019-02-15T03:36:48.208Z,100836.87
2019-02-15T03:39:16.000Z,100834.69
2019-02-15T03:41:41.894Z,100844.81
2019-02-15T03:44:07.963Z,100832.03
2019-02-15T03:46:33.791Z,100837.27
2019-02-15T03:48:59.816Z,100830.66
2019-02-15T03:51:25.909Z,100837.70
2019-02-15T03:53:51.802Z,100824.52
2019-02-15T03:56:17.643Z,100835.61
2019-02-15T03:58:43.784Z,100831.25
2019-02-15T04:01:09.729Z,100840.52
2019-02-15T04:03:35.592Z,100845.33
2019-02-15T04:06:02.390Z,100854.13
2019-02-15T04:08:28.241Z,100800.78
2019-02-15T04:10:54.140Z,100833.36
2019-02-15T04:13:20.393Z,100841.66
2019-02-15T04:15:46.258Z,100844.25
2019-02-15T04:18:12.232Z,100837.63
2019-02-15T04:20:38.260Z,100845.09
2019-02-15T04:23:04.129Z,100851.25
2019-02-15T04:25:29.983Z,100851.25
2019-02-15T04:27:56.081Z,100848.09
2019-02-15T04:30:21.965Z,100852.97
2019-02-15T04:32:47.816Z,100854.77
2019-02-15T04:35:13.941Z,100864.48
2019-02-15T04:37:39.823Z,100861.33
2019-02-15T04:40:07.105Z,100864.42
2019-02-15T04:42:33.072Z,100864.81
2019-02-15T04:44:58.903Z,100885.15
2019-02-15T04:47:24.811Z,100883.77
2019-02-15T04:49:50.854Z,100887.31
2019-02-15T04:52:16.745Z,100891.70
2019-02-15T04:54:42.680Z,100891.22
2019-02-15T04:57:08.715Z,100882.83
2019-02-15T04:59:34.566Z,100888.07
2019-02-15T05:02:00.424Z,100894.69
2019-02-15T05:04:26.532Z,100908.31
2019-02-15T05:06:52.477Z,100910.11
2019-02-15T05:09:18.329Z,100904.77
2019-02-15T05:11:44.434Z,100920.16
2019-02-15T05:14:10.308Z,100915.80
2019-02-15T05:16:36.306Z,100918.45
2019-02-15T05:19:02.506Z,100932.61
2019-02-15T05:21:28.364Z,100924.19
2019-02-15T05:23:54.330Z,100938.30
2019-02-15T05:26:20.454Z,100940.94
2019-02-15T05:28:46.331Z,100942.71
2019-02-15T05:31:12.194Z,100937.91
2019-02-15T05:33:38.219Z,100931.68
2019-02-15T05:36:04.078Z,100936.09
2019-02-15T05:38:29.952Z,100940.12
2019-02-15T05:40:56.007Z,100945.03
2019-02-15T05:43:21.884Z,100947.28
2019-02-15T05:45:47.754Z,100950.32
2019-02-15T05:48:14.043Z,100954.41
2019-02-15T05:50:40.040Z,100949.11
2019-02-15T05:53:05.866Z,100949.56
2019-02-15T05:55:31.960Z,100951.81
2019-02-15T05:57:57.868Z,100946.58
2019-02-15T06:00:23.721Z,100954.97
2019-02-15T06:02:49.821Z,100961.19
2019-02-15T06:05:15.657Z,100966.09
2019-02-15T06:07:41.544Z,100980.21
2019-02-15T06:10:07.594Z,100989.90
2019-02-15T06:12:33.452Z,100988.15
2019-02-15T06:14:59.330Z,101000.00
2019-02-15T06:17:25.368Z,100995.64
2019-02-15T06:19:51.222Z,101001.44
2019-02-15T06:22:17.115Z,101006.34
2019-02-15T06:24:43.105Z,101012.08
2019-02-15T06:27:08.922Z,101012.19
2019-02-15T06:29:34.787Z,101018.75
2019-02-15T06:32:00.802Z,101020.68
2019-02-15T06:34:26.688Z,101038.80
2019-02-15T06:36:52.587Z,101041.11
2019-02-15T06:39:18.694Z,101048.17
2019-02-15T06:41:44.647Z,101052.64
2019-02-15T06:44:10.509Z,101058.41
2019-02-15T06:46:36.566Z,101071.69
2019-02-15T06:49:02.452Z,101074.78
2019-02-15T06:51:28.301Z,101075.71
2019-02-15T06:53:54.339Z,101076.16
2019-02-15T06:56:20.189Z,101085.02
2019-02-15T06:58:56.962Z,101088.11
2019-02-15T07:01:24.782Z,101088.56
2019-02-15T07:03:52.620Z,101081.95
2019-02-15T07:06:18.676Z,101084.70
2019-02-15T07:08:44.610Z,101093.61
2019-02-15T07:11:10.449Z,101092.78
2019-02-15T07:13:36.495Z,101101.65
2019-02-15T07:16:02.471Z,101105.63
2019-02-15T07:18:28.360Z,101115.38
2019-02-15T07:20:54.278Z,101120.38
2019-02-15T07:23:20.160Z,101122.30
2019-02-15T07:25:46.144Z,101118.82
2019-02-15T07:28:12.184Z,101122.84
2019-02-15T07:30:38.151Z,101114.95
2019-02-15T07:33:04.098Z,101122.59
2019-02-15T07:35:30.253Z,101140.80
2019-02-15T07:37:56.133Z,101144.91
2019-02-15T07:40:21.982Z,101142.80
2019-02-15T07:42:48.005Z,101141.67
2019-02-15T07:45:13.853Z,101154.10
2019-02-15T07:47:39.729Z,101151.55
2019-02-15T07:50:10.387Z,101157.42
2019-02-15T07:52:36.264Z,101148.74
2019-02-15T07:55:02.728Z,101144.00
2019-02-15T07:57:28.770Z,101144.00
2019-02-15T07:59:54.659Z,101151.52
2019-02-15T08:02:20.614Z,101160.82
2019-02-15T08:04:46.675Z,101158.62
2019-02-15T08:07:12.554Z,101160.86
2019-02-15T08:09:38.418Z,101160.43
2019-02-15T08:12:04.569Z,101159.11
2019-02-15T08:14:30.435Z,101160.91
2019-02-15T08:16:56.304Z,101168.87
2019-02-15T08:19:22.437Z,101184.69
2019-02-15T08:21:48.297Z,101183.81
2019-02-15T08:24:14.220Z,101180.25
2019-02-15T08:26:40.223Z,101186.77
2019-02-15T08:29:06.132Z,101189.36
2019-02-15T08:31:31.989Z,101195.87
2019-02-15T08:33:58.044Z,101205.96
2019-02-15T08:36:23.994Z,101209.44
2019-02-15T08:38:49.868Z,101212.87
2019-02-15T08:41:16.026Z,101214.98
2019-02-15T08:43:41.899Z,101214.89
2019-02-15T08:46:07.891Z,101229.34
2019-02-15T08:48:36.119Z,101227.53
2019-02-15T08:51:02.031Z,101237.57
2019-02-15T08:53:27.881Z,101227.39
2019-02-15T08:55:53.802Z,101239.64
2019-02-15T08:58:19.676Z,101208.52
2019-02-15T09:00:45.533Z,101252.23
2019-02-15T09:03:11.631Z,101252.14
2019-02-15T09:05:37.489Z,101254.70
2019-02-15T09:08:03.339Z,101251.08
2019-02-15T09:10:29.488Z,101254.91
2019-02-15T09:12:55.364Z,101263.23
2019-02-15T09:15:21.941Z,101274.12
2019-02-15T09:17:48.106Z,101265.20
2019-02-15T09:20:13.912Z,101282.28
2019-02-15T09:22:39.793Z,101271.61
2019-02-15T09:25:07.079Z,101280.25
2019-02-15T09:27:34.833Z,101285.45
2019-02-15T09:30:00.669Z,101264.19
2019-02-15T09:32:26.836Z,101285.69
2019-02-15T09:34:52.812Z,101292.21
2019-02-15T09:37:18.664Z,101292.56
2019-02-15T09:39:44.836Z,101287.17
2019-02-15T09:42:10.737Z,101294.13
2019-02-15T09:44:36.571Z,101301.48
2019-02-15T09:47:02.713Z,101293.94
2019-02-15T09:49:28.583Z,101296.00
2019-02-15T09:51:55.567Z,101295.51
2019-02-15T09:54:21.663Z,101301.63
2019-02-15T09:56:47.655Z,101306.40
2019-02-15T09:59:13.632Z,101306.34
2019-02-15T10:01:39.778Z,101307.58
2019-02-15T10:04:05.655Z,101311.05
2019-02-15T10:06:31.513Z,101314.52
2019-02-15T10:08:57.654Z,101322.42
2019-02-15T10:11:23.531Z,101318.02
2019-02-15T10:13:49.436Z,101313.59
2019-02-15T10:16:15.630Z,101325.06
2019-02-15T10:18:41.465Z,101319.72
2019-02-15T10:21:07.358Z,101323.69
2019-02-15T10:23:33.465Z,101328.94
2019-02-15T10:25:59.356Z,101349.15
2019-02-15T10:28:25.324Z,101349.48
2019-02-15T10:30:51.382Z,101349.88
2019-02-15T10:33:17.206Z,101357.33
2019-02-15T10:35:43.098Z,101344.88
2019-02-15T10:38:09.047Z,101347.48
2019-02-15T10:40:34.901Z,101339.04
2019-02-15T10:43:00.804Z,101349.53
2019-02-15T10:45:27.028Z,101348.11
2019-02-15T10:47:52.881Z,101345.81
2019-02-15T10:50:18.884Z,101335.59
2019-02-15T10:52:44.940Z,101348.84
2019-02-15T10:55:10.878Z,101354.91
2019-02-15T10:57:36.785Z,101357.58
2019-02-15T11:00:09.766Z,101368.17
2019-02-15T11:02:35.587Z,101375.23
2019-02-15T11:05:01.418Z,101380.97
2019-02-15T11:07:27.472Z,101368.11
2019-02-15T11:09:53.359Z,101370.70
2019-02-15T11:12:19.342Z,101367.48
2019-02-15T11:14:45.419Z,101369.73
2019-02-15T11:17:11.261Z,101363.94
2019-02-15T11:19:37.131Z,101357.26
2019-02-15T11:22:03.304Z,101350.20
2019-02-15T11:24:29.183Z,101352.36
2019-02-15T11:26:55.056Z,101349.31
2019-02-15T11:29:21.143Z,101356.73
2019-02-15T11:31:47.148Z,101362.45
2019-02-15T11:34:13.001Z,101362.95
2019-02-15T11:36:39.125Z,101362.08
2019-02-15T11:39:05.169Z,101352.06
2019-02-15T11:41:31.049Z,101352.11
2019-02-15T11:43:57.340Z,101368.36
2019-02-15T11:46:23.211Z,101375.80
2019-02-15T11:48:49.065Z,101376.65
2019-02-15T11:51:15.201Z,101374.98
2019-02-15T11:53:41.103Z,101384.65
2019-02-15T11:56:06.980Z,101384.20
2019-02-15T11:58:33.016Z,101388.08
2019-02-15T12:00:58.853Z,101382.28
2019-02-15T12:03:24.775Z,101381.80
2019-02-15T12:05:50.892Z,101378.66
2019-02-15T12:08:16.788Z,101377.77
2019-02-15T12:10:42.663Z,101381.30
2019-02-15T12:13:08.725Z,101383.50
2019-02-15T12:15:34.635Z,101385.22
2019-02-15T12:18:00.480Z,101386.90
2019-02-15T12:20:26.604Z,101384.30
2019-02-15T12:22:52.485Z,101398.08
2019-02-15T12:25:18.454Z,101392.30
2019-02-15T12:27:44.599Z,101401.02
2019-02-15T12:30:13.878Z,101401.80
2019-02-15T12:32:39.781Z,101400.05
2019-02-15T12:35:06.536Z,101401.80
2019-02-15T12:37:32.488Z,101395.67
2019-02-15T12:39:58.392Z,101397.88
2019-02-15T12:42:24.574Z,101395.63
2019-02-15T12:44:50.456Z,101403.08
2019-02-15T12:47:16.313Z,101409.59
2019-02-15T12:49:42.335Z,101403.81
2019-02-15T12:52:08.191Z,101409.50
2019-02-15T12:54:34.099Z,101406.41
2019-02-15T12:57:00.252Z,101404.59
2019-02-15T12:59:26.123Z,101400.22
2019-02-15T13:01:52.114Z,101400.72
2019-02-15T13:04:18.260Z,101409.70
2019-02-15T13:06:44.122Z,101415.95
2019-02-15T13:09:10.013Z,101419.03
2019-02-15T13:11:36.081Z,101420.70
2019-02-15T13:14:01.941Z,101418.88
2019-02-15T13:16:27.819Z,101416.23
2019-02-15T13:18:53.948Z,101415.80
2019-02-15T13:21:19.808Z,101416.28
2019-02-15T13:23:45.664Z,101423.80
2019-02-15T13:26:11.874Z,101428.30
2019-02-15T13:28:37.708Z,101425.22
2019-02-15T13:31:03.569Z,101423.00
2019-02-15T13:33:29.837Z,101424.23
2019-02-15T13:35:55.680Z,101410.55
2019-02-15T13:38:21.575Z,101421.14
2019-02-15T13:40:47.725Z,101425.55
2019-02-15T13:43:13.577Z,101422.02
2019-02-15T13:45:39.448Z,101425.12
2019-02-15T13:48:05.567Z,101432.23
2019-02-15T13:50:31.537Z,101434.00
2019-02-15T13:52:57.411Z,101430.13
2019-02-15T13:55:23.510Z,101442.05
2019-02-15T13:57:49.407Z,101427.52
2019-02-15T14:00:15.338Z,101426.20
2019-02-15T14:02:41.458Z,101430.27
2019-02-15T14:05:09.707Z,101430.77
2019-02-15T14:07:35.716Z,101424.63
2019-02-15T14:10:01.749Z,101412.85
2019-02-15T14:12:27.596Z,101415.70
2019-02-15T14:14:53.559Z,101420.66
2019-02-15T14:17:19.708Z,101419.81
2019-02-15T14:19:45.613Z,101424.33
2019-02-15T14:22:11.462Z,101413.41
2019-02-15T14:24:37.590Z,101408.73
2019-02-15T14:27:03.539Z,101404.38
2019-02-15T14:29:29.407Z,101399.66
2019-02-15T14:31:55.401Z,101386.08
2019-02-15T14:34:21.265Z,101394.50
2019-02-15T14:36:47.245Z,101396.77
2019-02-15T14:39:13.294Z,101402.11
2019-02-15T14:41:39.136Z,101398.09
2019-02-15T14:44:04.998Z,101399.89
2019-02-15T14:46:31.156Z,101404.66
2019-02-15T14:48:57.068Z,101404.61
2019-02-15T14:51:22.969Z,101401.07
2019-02-15T14:53:48.937Z,101405.05
2019-02-15T14:56:14.764Z,101403.72
2019-02-15T14:58:40.612Z,101405.44
2019-02-15T15:01:06.559Z,101400.64
2019-02-15T15:03:32.403Z,101404.61
2019-02-15T15:05:58.267Z,101413.92
2019-02-15T15:08:24.352Z,101416.17
2019-02-15T15:10:50.210Z,101417.59
2019-02-15T15:13:16.053Z,101422.54
2019-02-15T15:15:42.002Z,101417.30
2019-02-15T15:18:13.286Z,101419.25
2019-02-15T15:20:35.525Z,101429.00
2019-02-15T15:23:01.593Z,101423.70
2019-02-15T15:25:27.450Z,101422.34
2019-02-15T15:27:53.301Z,101425.81
2019-02-15T15:30:19.514Z,101424.94
2019-02-15T15:32:45.383Z,101424.94
2019-02-15T15:35:11.523Z,101427.49
2019-02-15T15:37:37.557Z,101428.42
2019-02-15T15:40:05.316Z,101431.16
2019-02-15T15:42:31.198Z,101432.58
2019-02-15T15:44:57.211Z,101422.08
2019-02-15T15:47:23.058Z,101431.88
2019-02-15T15:49:49.022Z,101425.30
2019-02-15T15:52:15.053Z,101413.92
2019-02-15T15:54:40.932Z,101414.41
2019-02-15T15:57:06.779Z,101409.52
2019-02-15T15:59:32.888Z,101401.53
2019-02-15T16:01:58.880Z,101400.56
2019-02-15T16:04:24.710Z,101413.75
2019-02-15T16:06:50.854Z,101409.33
2019-02-15T16:09:16.697Z,101401.79
2019-02-15T16:11:42.543Z,101398.25
2019-02-15T16:14:08.629Z,101395.52
2019-02-15T16:16:34.500Z,101384.88
2019-02-15T16:19:00.331Z,101381.75
2019-02-15T16:21:26.358Z,101376.01
2019-02-15T16:23:52.245Z,101371.59
2019-02-15T16:26:18.089Z,101365.81
2019-02-15T16:28:44.010Z,101373.22
2019-02-15T16:31:10.029Z,101374.98
2019-02-15T16:33:35.905Z,101357.42
2019-02-15T16:36:01.994Z,101348.66
2019-02-15T16:38:27.847Z,101349.94
2019-02-15T16:40:53.721Z,101342.87
2019-02-15T16:43:20.806Z,101337.48
2019-02-15T16:45:46.795Z,101327.72
2019-02-15T16:48:12.729Z,101322.38
2019-02-15T16:50:38.748Z,101323.69
2019-02-15T16:53:04.581Z,101315.35
2019-02-15T16:55:30.640Z,101317.12
2019-02-15T16:57:56.642Z,101315.37
2019-02-15T17:00:22.594Z,101317.22
2019-02-15T17:02:48.469Z,101316.44
2019-02-15T17:05:14.628Z,101321.39
2019-02-15T17:07:40.480Z,101313.94
2019-02-15T17:10:07.334Z,101312.22
2019-02-15T17:12:33.459Z,101306.88
2019-02-15T17:14:59.307Z,101292.31
2019-02-15T17:17:25.162Z,101290.06
2019-02-15T17:19:51.281Z,101293.55
2019-02-15T17:22:17.272Z,101292.61
2019-02-15T17:24:43.144Z,101293.55
2019-02-15T17:27:09.096Z,101295.31
2019-02-15T17:29:34.971Z,101298.89
2019-02-15T17:32:00.953Z,101286.59
2019-02-15T17:34:26.967Z,101289.29
2019-02-15T17:36:52.826Z,101304.33
2019-02-15T17:39:18.734Z,101310.06
2019-02-15T17:41:44.968Z,101309.67
2019-02-15T17:44:10.851Z,101288.06
2019-02-15T17:46:36.805Z,101284.14
2019-02-15T17:49:03.394Z,101287.31
2019-02-15T17:51:29.311Z,101280.80
2019-02-15T17:53:55.332Z,101273.80
2019-02-15T17:56:21.447Z,101275.07
2019-02-15T17:58:47.359Z,101276.92
2019-02-15T18:01:13.340Z,101271.20
2019-02-15T18:03:39.367Z,101280.94
2019-02-15T18:06:05.256Z,101271.30
2019-02-15T18:08:31.091Z,101265.70
2019-02-15T18:10:58.617Z,101260.55
2019-02-15T18:13:24.735Z,101265.52
2019-02-15T18:15:50.608Z,101255.50
2019-02-15T18:18:16.784Z,101249.38
2019-02-15T18:20:42.693Z,101247.23
2019-02-15T18:23:08.513Z,101241.64
2019-02-15T18:25:34.663Z,101240.81
2019-02-15T18:28:00.519Z,101243.93
2019-02-15T18:30:26.390Z,101239.53
2019-02-15T18:32:52.559Z,101244.03
2019-02-15T18:35:18.567Z,101246.67
2019-02-15T18:37:44.430Z,101244.53
2019-02-15T18:40:10.531Z,101241.94
2019-02-15T18:42:36.523Z,101244.58
2019-02-15T18:45:03.000Z,101235.72
2019-02-15T18:47:29.023Z,101228.62
2019-02-15T18:49:54.924Z,101231.20
2019-02-15T18:52:20.808Z,101225.91
2019-02-15T18:54:46.776Z,101230.70
2019-02-15T18:57:12.625Z,101225.41
2019-02-15T18:59:38.457Z,101221.40
2019-02-15T19:02:04.518Z,101222.67
2019-02-15T19:04:30.383Z,101220.03
2019-02-15T19:06:56.277Z,101211.17
2019-02-15T19:09:22.400Z,101211.17
2019-02-15T19:11:48.267Z,101216.02
2019-02-15T19:14:14.355Z,101212.44
2019-02-15T19:16:40.514Z,101209.35
2019-02-15T19:19:06.454Z,101200.14
2019-02-15T19:21:32.323Z,101159.76
2019-02-15T19:23:58.453Z,101197.02
2019-02-15T19:26:24.345Z,101188.23
2019-02-15T19:28:50.302Z,101194.85
2019-02-15T19:31:16.458Z,101188.28
2019-02-15T19:33:42.338Z,101184.32
2019-02-15T19:36:08.523Z,101174.68
2019-02-15T19:38:34.641Z,101169.92
2019-02-15T19:41:00.490Z,101166.39
2019-02-15T19:43:26.368Z,101173.94
2019-02-15T19:45:52.545Z,101168.66
2019-02-15T19:48:18.417Z,101163.86
2019-02-15T19:50:44.279Z,101156.38
2019-02-15T19:53:10.491Z,101153.73
2019-02-15T19:55:36.368Z,101152.41
2019-02-15T19:58:02.386Z,101151.52
2019-02-15T20:00:28.515Z,101146.56
2019-02-15T20:02:54.385Z,101144.27
2019-02-15T20:05:20.366Z,101140.67
2019-02-15T20:07:46.468Z,101099.77
2019-02-15T20:10:16.711Z,101137.83
2019-02-15T20:12:42.612Z,101132.38
2019-02-15T20:15:09.655Z,101133.95
2019-02-15T20:17:35.533Z,101132.31
2019-02-15T20:20:01.493Z,101114.85
2019-02-15T20:22:27.589Z,101121.20
2019-02-15T20:24:53.448Z,101114.38
2019-02-15T20:27:19.333Z,101119.00
2019-02-15T20:29:49.471Z,101106.09
2019-02-15T20:32:13.018Z,101102.45
2019-02-15T20:34:45.161Z,101098.42
2019-02-15T20:37:06.735Z,101093.08
2019-02-15T20:39:32.582Z,101093.02
2019-02-15T20:41:58.566Z,101090.77
2019-02-15T20:44:24.588Z,101081.05
2019-02-15T20:46:50.418Z,101070.01
2019-02-15T20:49:16.323Z,101066.88
2019-02-15T20:51:42.366Z,101062.91
2019-02-15T20:54:08.273Z,101059.36
2019-02-15T20:56:34.114Z,101054.85
2019-02-15T20:59:00.117Z,101042.94
2019-02-15T21:01:25.963Z,100999.11
2019-02-15T21:03:51.922Z,101026.98
2019-02-15T21:06:17.918Z,101030.96
2019-02-15T21:08:43.884Z,101023.08
2019-02-15T21:11:09.773Z,101020.09
2019-02-15T21:13:35.831Z,101022.29
2019-02-15T21:16:01.680Z,101015.24
2019-02-15T21:18:27.539Z,101018.77
2019-02-15T21:20:53.564Z,101009.56
2019-02-15T21:23:19.463Z,101012.66
2019-02-15T21:25:45.324Z,100996.37
2019-02-15T21:28:11.368Z,100999.08
2019-02-15T21:30:37.228Z,100984.58
2019-02-15T21:33:03.131Z,100986.89
2019-02-15T21:35:29.099Z,100979.00
2019-02-15T21:37:54.984Z,100963.63
2019-02-15T21:40:20.833Z,100959.27
2019-02-15T21:42:46.821Z,100956.30
2019-02-15T21:45:12.891Z,100951.13
2019-02-15T21:47:38.744Z,100938.88
2019-02-15T21:50:06.099Z,100941.64
2019-02-15T21:52:31.967Z,100930.69
2019-02-15T21:54:57.862Z,100930.30
2019-02-15T21:57:24.029Z,100932.50
2019-02-15T21:59:49.910Z,100918.78
2019-02-15T22:02:15.759Z,100911.44
2019-02-15T22:04:41.787Z,100904.94
2019-02-15T22:07:07.674Z,100895.73
2019-02-15T22:09:33.552Z,100886.05
2019-02-15T22:11:59.615Z,100871.10
2019-02-15T22:14:25.468Z,100867.52
2019-02-15T22:16:51.329Z,100864.55
2019-02-15T22:19:17.303Z,100858.44
2019-02-15T22:21:43.137Z,100852.36
2019-02-15T22:24:09.009Z,100844.48
2019-02-15T22:26:35.041Z,100845.81
2019-02-15T22:29:01.031Z,100841.08
2019-02-15T22:31:26.888Z,100841.59
2019-02-15T22:33:52.830Z,100835.03
2019-02-15T22:36:18.673Z,100834.28
2019-02-15T22:38:44.563Z,100826.06
2019-02-15T22:41:11.794Z,100816.98
2019-02-15T22:43:37.657Z,100809.98
2019-02-15T22:46:03.645Z,100805.20
2019-02-15T22:48:29.729Z,100792.91
2019-02-15T22:50:55.580Z,100791.64
2019-02-15T22:53:21.447Z,100788.58
2019-02-15T22:55:47.491Z,100780.25
2019-02-15T22:58:13.407Z,100774.09
2019-02-15T23:00:51.693Z,100765.77
2019-02-15T23:03:18.861Z,100772.40
2019-02-15T23:05:44.836Z,100770.44
2019-02-15T23:08:10.991Z,100770.61
2019-02-15T23:10:36.946Z,100777.39
2019-02-15T23:13:03.036Z,100776.70
2019-02-15T23:15:29.048Z,100779.00
2019-02-15T23:17:54.956Z,100767.22
2019-02-15T23:20:20.870Z,100771.75
2019-02-15T23:22:46.858Z,100758.70
2019-02-15T23:25:12.742Z,100752.66
2019-02-15T23:27:38.575Z,100736.47
2019-02-15T23:30:05.869Z,100746.81
2019-02-15T23:32:31.726Z,100736.47
2019-02-15T23:34:57.600Z,100732.63
2019-02-15T23:37:23.750Z,100739.28
2019-02-15T23:39:49.609Z,100744.56
2019-02-15T23:42:15.547Z,100734.11
2019-02-15T23:44:41.507Z,100725.03
2019-02-15T23:47:07.346Z,100707.97
2019-02-15T23:49:33.240Z,100661.84
2019-02-15T23:51:59.374Z,100697.60
2019-02-15T23:54:25.276Z,100694.63
2019-02-15T23:56:51.159Z,100691.70
2019-02-15T23:59:17.319Z,100690.06
